Time;durP1;ratioP1;P1;durP2;ratioP2;P2;SDS_P1;SDS_P2;PMS_P1;PMS_P2;Temp;Humidity;BMP_temperature;BMP_pressure;BME280_temperature;BME280_humidity;BME280_pressure;Samples;Min_cycle;Max_cycle;Signal;HPM_P1;HPM_P2
2021/01/27 00:04:11;;;;;;;2.80;1.07;;;;;;;0.80;100.00;99377.20;3893290;75;392108;-76
2021/01/27 00:09:32;;;;;;;3.30;2.20;;;;;;;0.84;100.00;99370.03;3893441;75;385982;-76
2021/01/27 00:14:53;;;;;;;1.47;1.17;;;;;;;0.78;100.00;99361.84;3893079;74;394264;-76
2021/01/27 00:20:17;;;;;;;3.13;0.93;;;;;;;0.73;100.00;99363.97;3892602;74;394202;-77
2021/01/27 00:25:39;;;;;;;0.93;0.83;;;;;;;0.71;100.00;99368.91;3894023;74;383806;-77
2021/01/27 00:31:00;;;;;;;1.47;0.73;;;;;;;0.70;100.00;99359.20;3893192;75;394203;-77
2021/01/27 00:36:22;;;;;;;1.13;0.73;;;;;;;0.65;100.00;99351.28;3893388;75;391853;-77
2021/01/27 00:41:43;;;;;;;3.73;1.93;;;;;;;0.58;100.00;99336.09;3892991;75;388771;-77
2021/01/27 00:47:04;;;;;;;1.17;1.07;;;;;;;0.57;100.00;99337.21;3892996;75;389766;-77
2021/01/27 00:52:26;;;;;;;2.93;2.10;;;;;;;0.48;100.00;99327.81;3892692;74;394300;-77
2021/01/27 00:57:47;;;;;;;1.00;0.80;;;;;;;0.45;100.00;99327.67;3893359;75;393230;-77
2021/01/27 01:03:10;;;;;;;2.33;1.07;;;;;;;0.36;100.00;99329.09;3893454;75;387686;-77
2021/01/27 01:08:31;;;;;;;2.50;1.60;;;;;;;0.39;100.00;99330.34;3892803;74;392147;-76
2021/01/27 01:13:52;;;;;;;4.30;0.87;;;;;;;0.42;100.00;99325.61;3893148;74;383597;-77
2021/01/27 01:19:14;;;;;;;2.23;1.37;;;;;;;0.38;100.00;99334.16;3892321;75;394020;-77
2021/01/27 01:24:34;;;;;;;1.07;0.97;;;;;;;0.36;100.00;99328.27;3893425;75;383790;-77
2021/01/27 01:29:55;;;;;;;0.90;0.60;;;;;;;0.44;100.00;99334.20;3893725;75;385870;-77
2021/01/27 01:35:18;;;;;;;2.70;1.60;;;;;;;0.40;100.00;99340.83;3892353;74;396080;-77
2021/01/27 01:40:45;;;;;;;1.63;1.53;;;;;;;0.40;100.00;99331.93;3892602;75;396421;-76
2021/01/27 01:46:12;;;;;;;0.80;0.63;;;;;;;0.30;100.00;99326.31;3895774;75;383581;-77
2021/01/27 01:51:51;;;;;;;1.00;0.90;;;;;;;0.25;100.00;99314.87;3895012;74;391900;-77
2021/01/27 01:57:15;;;;;;;3.60;1.50;;;;;;;0.38;100.00;99309.81;3893628;74;396077;-76
2021/01/27 02:02:38;;;;;;;1.17;1.07;;;;;;;0.22;100.00;99304.16;3894912;75;392120;-77
2021/01/27 02:08:00;;;;;;;0.80;0.63;;;;;;;0.29;100.00;99299.59;3894210;74;383567;-76
2021/01/27 02:13:43;;;;;;;1.00;0.80;;;;;;;0.30;100.00;99286.30;3894116;75;385660;-76
2021/01/27 02:19:30;;;;;;;3.47;1.73;;;;;;;0.34;100.00;99276.39;3893151;74;394992;-76
2021/01/27 02:25:21;;;;;;;3.37;3.17;;;;;;;0.22;100.00;99279.81;3893111;75;391913;-76
2021/01/27 02:31:03;;;;;;;2.07;1.20;;;;;;;0.24;100.00;99281.63;3895660;75;383798;-76
2021/01/27 02:36:42;;;;;;;0.80;0.50;;;;;;;0.19;100.00;99270.20;3896165;75;383826;-76
2021/01/27 02:42:06;;;;;;;1.27;1.17;;;;;;;0.17;100.00;99264.33;3895428;75;391926;-76
2021/01/27 02:47:30;;;;;;;5.90;2.73;;;;;;;0.23;100.00;99275.20;3894073;74;388728;-76
2021/01/27 02:53:00;;;;;;;4.30;1.90;;;;;;;0.13;100.00;99266.11;3894445;75;394247;-76
2021/01/27 02:58:24;;;;;;;2.10;1.47;;;;;;;0.01;100.00;99265.46;3895600;75;384029;-76
2021/01/27 03:03:48;;;;;;;7.70;2.57;;;;;;;0.01;100.00;99266.00;3892633;75;396059;-76
2021/01/27 03:09:18;;;;;;;2.50;2.00;;;;;;;-0.06;100.00;99279.23;3893772;74;392183;-76
2021/01/27 03:14:40;;;;;;;4.30;2.60;;;;;;;-0.13;100.00;99284.36;3893568;74;395320;-76
2021/01/27 03:20:07;;;;;;;2.07;1.97;;;;;;;-0.19;100.00;99280.80;3892446;74;396029;-75
2021/01/27 03:25:34;;;;;;;3.37;1.73;;;;;;;-0.21;100.00;99285.20;3895086;75;394992;-77
2021/01/27 03:30:57;;;;;;;1.53;1.37;;;;;;;-0.30;100.00;99283.08;3895716;75;383848;-75
2021/01/27 03:36:19;;;;;;;5.00;1.70;;;;;;;-0.31;100.00;99289.59;3893031;75;394001;-76
2021/01/27 03:41:43;;;;;;;2.87;2.67;;;;;;;-0.32;100.00;99281.82;3893135;75;396070;-76
2021/01/27 03:47:10;;;;;;;1.00;0.80;;;;;;;-0.32;100.00;99278.55;3895786;74;383585;-76
2021/01/27 03:52:59;;;;;;;3.47;2.40;;;;;;;-0.34;100.00;99278.09;3893236;74;396335;-76
2021/01/27 03:58:25;;;;;;;3.10;1.57;;;;;;;-0.30;100.00;99274.19;3928595;74;396084;-76
2021/01/27 04:03:47;;;;;;;1.73;1.60;;;;;;;-0.31;100.00;99263.14;3933342;74;396128;-76
2021/01/27 04:09:08;;;;;;;4.80;3.80;;;;;;;-0.39;100.00;99255.29;3932342;74;392108;-76
2021/01/27 04:14:29;;;;;;;1.80;1.67;;;;;;;-0.39;100.00;99232.31;3932895;74;387728;-76
2021/01/27 04:19:51;;;;;;;2.73;2.53;;;;;;;-0.50;100.00;99220.84;3931985;74;396140;-76
2021/01/27 04:25:14;;;;;;;1.57;1.47;;;;;;;-0.43;100.00;99202.22;3932233;74;396109;-76
2021/01/27 04:30:36;;;;;;;1.73;1.10;;;;;;;-0.48;100.00;99197.00;3932515;74;383544;-76
2021/01/27 04:35:57;;;;;;;0.90;0.70;;;;;;;-0.59;100.00;99195.22;3933613;74;387762;-76
2021/01/27 04:41:19;;;;;;;1.77;1.67;;;;;;;-0.48;100.00;99186.98;3932692;74;392954;-76
2021/01/27 04:46:44;;;;;;;1.43;1.33;;;;;;;-0.54;100.00;99186.15;3932867;74;391949;-76
2021/01/27 04:52:31;;;;;;;1.07;0.97;;;;;;;-0.63;100.00;99191.57;3932877;74;396025;-76
2021/01/27 04:58:15;;;;;;;0.80;0.60;;;;;;;-0.68;100.00;99180.95;3907435;74;383814;-76
2021/01/27 05:03:59;;;;;;;2.47;2.37;;;;;;;-0.91;100.00;99173.97;3895170;75;387762;-76
2021/01/27 05:09:32;;;;;;;1.00;0.90;;;;;;;-1.14;100.00;99170.69;3895282;75;383569;-76
2021/01/27 05:14:54;;;;;;;2.60;1.23;;;;;;;-0.95;100.00;99166.27;3893200;75;387737;-76
2021/01/27 05:20:18;;;;;;;1.00;0.60;;;;;;;-1.19;100.00;99163.31;3893443;75;385644;-76
2021/01/27 05:25:42;;;;;;;3.10;1.53;;;;;;;-1.32;100.00;99146.77;3892540;74;396088;-76
2021/01/27 05:31:04;;;;;;;1.77;1.67;;;;;;;-1.47;100.00;99137.25;3893078;75;383833;-76
2021/01/27 05:36:28;;;;;;;1.10;1.00;;;;;;;-1.54;100.00;99126.16;3893651;75;383566;-76
2021/01/27 05:41:49;;;;;;;1.27;1.17;;;;;;;-1.58;100.00;99127.12;3893186;75;383781;-76
2021/01/27 05:47:28;;;;;;;2.33;2.10;;;;;;;-1.53;100.00;99123.70;3892830;74;395141;-76
2021/01/27 05:52:49;;;;;;;5.27;1.20;;;;;;;-1.37;100.00;99126.14;3895671;75;393991;-77
2021/01/27 05:58:10;;;;;;;0.80;0.60;;;;;;;-1.25;100.00;99139.74;3919451;74;383584;-76
2021/01/27 06:03:31;;;;;;;1.37;1.27;;;;;;;-1.20;100.00;99138.24;3932613;74;396357;-76
2021/01/27 06:08:56;;;;;;;1.90;1.70;;;;;;;-1.51;100.00;99142.25;3932642;74;394213;-76
2021/01/27 06:14:21;;;;;;;1.00;0.80;;;;;;;-1.52;100.00;99144.72;3935466;74;390036;-76
2021/01/27 06:19:42;;;;;;;2.00;1.73;;;;;;;-1.72;100.00;99136.48;3932783;74;396109;-76
2021/01/27 06:25:25;;;;;;;2.07;1.93;;;;;;;-1.85;100.00;99128.02;3932534;74;396021;-76
2021/01/27 06:30:58;;;;;;;1.50;1.40;;;;;;;-1.89;100.00;99123.81;3904078;74;394987;-76
2021/01/27 06:36:52;;;;;;;3.37;1.80;;;;;;;-1.90;100.00;99113.36;3933072;74;394269;-77
2021/01/27 06:42:25;;;;;;;5.03;2.60;;;;;;;-1.86;100.00;99119.14;3933119;74;396163;-77
2021/01/27 06:48:07;;;;;;;6.77;1.80;;;;;;;-1.87;100.00;99114.86;3932132;74;396506;-76
2021/01/27 06:53:41;;;;;;;2.73;1.50;;;;;;;-1.90;100.00;99102.57;3934641;74;391855;-77
2021/01/27 06:59:23;;;;;;;4.40;0.90;;;;;;;-1.87;100.00;99108.66;3738022;78;394021;-76
2021/01/27 07:04:50;;;;;;;2.60;2.43;;;;;;;-1.85;100.00;99115.31;3920284;73;396323;-78
2021/01/27 07:10:36;;;;;;;1.30;1.20;;;;;;;-1.85;100.00;99105.09;3919023;75;392130;-76
2021/01/27 07:16:23;;;;;;;7.50;1.83;;;;;;;-1.85;100.00;99112.61;3919062;75;394285;-78
2021/01/27 07:21:53;;;;;;;1.03;0.93;;;;;;;-1.75;100.00;99120.39;3918824;75;392102;-76
2021/01/27 07:27:17;;;;;;;1.93;1.33;;;;;;;-1.65;100.00;99113.86;3919579;75;396092;-77
2021/01/27 07:32:47;;;;;;;1.40;1.10;;;;;;;-1.63;100.00;99115.16;3920837;75;391930;-77
2021/01/27 07:38:17;;;;;;;2.60;2.40;;;;;;;-1.57;100.00;99136.80;3920406;74;396073;-77
2021/01/27 07:43:56;;;;;;;1.00;0.83;;;;;;;-1.46;100.00;99136.72;3921050;75;392175;-77
2021/01/27 07:49:21;;;;;;;1.73;1.47;;;;;;;-1.35;100.00;99131.20;3919493;74;396087;-77
2021/01/27 07:54:48;;;;;;;4.40;2.00;;;;;;;-1.23;100.00;99143.49;3919041;74;396097;-78
2021/01/27 08:00:24;;;;;;;4.20;3.77;;;;;;;-1.11;100.00;99140.91;3898861;75;396520;-78
2021/01/27 08:05:47;;;;;;;0.90;0.80;;;;;;;-1.02;100.00;99137.09;3895491;74;391900;-77
2021/01/27 08:11:14;;;;;;;3.00;2.73;;;;;;;-0.93;100.00;99132.45;3892816;75;387828;-78
2021/01/27 08:16:38;;;;;;;1.20;1.00;;;;;;;-0.81;100.00;99133.13;3895177;75;383888;-78
2021/01/27 08:22:04;;;;;;;2.30;1.20;;;;;;;-0.74;100.00;99116.09;3895226;74;393975;-78
2021/01/27 08:27:28;;;;;;;1.27;1.17;;;;;;;-0.63;100.00;99117.29;3892839;74;396041;-78
2021/01/27 08:32:49;;;;;;;2.70;1.80;;;;;;;-0.52;100.00;99114.46;3893288;75;391075;-78
2021/01/27 08:38:28;;;;;;;1.93;1.83;;;;;;;-0.46;100.00;99111.80;3892637;74;396315;-78
2021/01/27 08:43:53;;;;;;;2.93;2.73;;;;;;;-0.34;100.00;99109.20;3892043;75;396349;-78
2021/01/27 08:49:33;;;;;;;1.30;1.20;;;;;;;-0.14;100.00;99102.23;3893415;74;392163;-78
2021/01/27 08:54:55;;;;;;;0.97;0.87;;;;;;;-0.03;100.00;99106.91;3893280;75;391903;-78
2021/01/27 09:00:28;;;;;;;1.10;0.97;;;;;;;0.03;100.00;99116.39;3893211;74;393994;-78
2021/01/27 09:05:49;;;;;;;0.90;0.60;;;;;;;0.18;100.00;99114.45;3895797;75;388059;-78
2021/01/27 09:11:11;;;;;;;1.60;1.50;;;;;;;0.19;100.00;99090.34;3892420;75;395032;-78
2021/01/27 09:16:33;;;;;;;1.00;0.90;;;;;;;0.26;100.00;99094.64;3893002;74;392906;-78
2021/01/27 09:22:15;;;;;;;2.50;1.67;;;;;;;0.21;100.00;99092.16;3893561;75;387751;-78
2021/01/27 09:27:36;;;;;;;5.33;1.70;;;;;;;0.25;100.00;99083.59;3892535;75;391955;-79
2021/01/27 09:33:12;;;;;;;2.10;2.00;;;;;;;0.35;100.00;99066.41;3893495;75;383538;-78
2021/01/27 09:38:33;;;;;;;1.97;1.87;;;;;;;0.37;100.00;99072.83;3893038;75;388042;-78
2021/01/27 09:43:56;;;;;;;1.33;0.83;;;;;;;0.44;100.00;99068.48;3893122;75;386713;-78
2021/01/27 09:49:18;;;;;;;1.40;1.20;;;;;;;0.41;100.00;99066.42;3892289;75;394988;-78
2021/01/27 09:54:43;;;;;;;1.30;0.93;;;;;;;0.40;100.00;99076.23;3892957;75;394017;-78
2021/01/27 10:00:10;;;;;;;2.60;1.93;;;;;;;0.46;100.00;99086.50;3919279;74;389765;-78
2021/01/27 10:05:40;;;;;;;1.70;1.60;;;;;;;0.55;100.00;99081.80;3931927;74;396172;-78
2021/01/27 10:11:13;;;;;;;1.80;1.70;;;;;;;0.59;100.00;99076.50;3932766;74;387969;-77
2021/01/27 10:16:50;;;;;;;3.43;1.70;;;;;;;0.68;100.00;99067.19;3933888;74;396072;-78
2021/01/27 10:22:12;;;;;;;1.20;1.10;;;;;;;0.80;100.00;99061.23;3932938;74;383577;-78
2021/01/27 10:27:41;;;;;;;0.90;0.60;;;;;;;0.96;100.00;99060.00;3917995;74;383849;-79
2021/01/27 10:33:02;;;;;;;2.03;1.90;;;;;;;1.05;100.00;99034.95;3931997;74;396079;-78
2021/01/27 10:38:25;;;;;;;1.80;0.63;;;;;;;1.11;100.00;99020.86;3932840;74;386706;-78
2021/01/27 10:43:46;;;;;;;2.77;2.57;;;;;;;1.05;100.00;99014.06;3932541;74;383959;-78
2021/01/27 10:49:10;;;;;;;1.00;0.77;;;;;;;1.11;100.00;99028.18;3932857;74;383817;-79
2021/01/27 10:54:32;;;;;;;0.80;0.70;;;;;;;1.29;100.00;99024.12;3933099;74;383797;-79
2021/01/27 10:59:53;;;;;;;3.43;1.90;;;;;;;1.48;100.00;99031.11;3913555;74;396072;-80
2021/01/27 11:05:15;;;;;;;7.03;2.73;;;;;;;1.39;100.00;99029.08;3893109;75;393996;-78
2021/01/27 11:10:36;;;;;;;0.80;0.47;;;;;;;1.35;100.00;99023.55;3894251;75;383901;-78
2021/01/27 11:15:57;;;;;;;0.83;0.47;;;;;;;1.54;100.00;99002.05;3893661;74;383538;-79
2021/01/27 11:21:19;;;;;;;1.57;0.93;;;;;;;1.52;100.00;98996.20;3893880;75;383572;-80
2021/01/27 11:26:40;;;;;;;2.93;1.57;;;;;;;1.45;100.00;98996.00;3893609;74;388771;-78
2021/01/27 11:32:01;;;;;;;1.23;1.13;;;;;;;1.29;100.00;98997.83;3892549;74;396077;-79
2021/01/27 11:37:22;;;;;;;1.50;1.40;;;;;;;1.40;100.00;98995.44;3893301;75;393211;-79
2021/01/27 11:42:43;;;;;;;2.27;2.07;;;;;;;1.12;100.00;99000.77;3892866;74;383576;-79
2021/01/27 11:48:06;;;;;;;3.63;1.93;;;;;;;1.15;100.00;98990.59;3892783;74;392154;-79
2021/01/27 11:53:27;;;;;;;2.57;1.00;;;;;;;1.20;100.00;98976.03;3893657;75;383818;-79
2021/01/27 11:58:48;;;;;;;0.90;0.80;;;;;;;1.01;100.00;98956.30;3899224;74;385671;-78
2021/01/27 12:04:10;;;;;;;1.17;0.60;;;;;;;0.78;100.00;98952.48;3933139;74;392175;-80
2021/01/27 12:09:32;;;;;;;1.17;0.77;;;;;;;0.63;100.00;98937.47;3933253;74;383571;-80
2021/01/27 12:14:53;;;;;;;1.17;1.07;;;;;;;0.70;100.00;98943.10;3932632;74;391954;-80
2021/01/27 12:20:16;;;;;;;2.23;2.03;;;;;;;0.70;100.00;98941.75;3932091;74;396142;-81
2021/01/27 12:25:37;;;;;;;1.57;0.80;;;;;;;0.60;100.00;98924.63;3932064;74;393997;-82
2021/01/27 12:31:00;;;;;;;1.00;0.80;;;;;;;0.50;100.00;98914.79;3933076;74;392096;-82
2021/01/27 12:36:21;;;;;;;1.20;1.10;;;;;;;0.63;100.00;98895.52;3933416;74;383778;-82
2021/01/27 12:41:42;;;;;;;1.67;1.57;;;;;;;0.75;100.00;98889.30;3932858;74;388030;-81
2021/01/27 12:47:04;;;;;;;1.77;0.97;;;;;;;0.83;100.00;98884.56;3932939;74;383932;-81
2021/01/27 12:52:25;;;;;;;1.93;1.33;;;;;;;0.87;100.00;98877.34;3932628;74;396070;-81
2021/01/27 12:57:48;;;;;;;3.73;1.10;;;;;;;0.94;100.00;98879.46;3932542;74;395284;-81
2021/01/27 13:03:09;;;;;;;1.27;1.17;;;;;;;1.10;100.00;98868.14;3932610;74;396072;-81
2021/01/27 13:08:30;;;;;;;8.90;2.13;;;;;;;1.06;100.00;98864.55;3932402;74;394041;-81
2021/01/27 13:13:51;;;;;;;2.00;1.80;;;;;;;1.03;100.00;98863.33;3932137;74;396281;-80
2021/01/27 13:19:14;;;;;;;0.80;0.43;;;;;;;1.16;100.00;98863.50;3933665;74;383580;-80
2021/01/27 13:24:35;;;;;;;1.00;0.90;;;;;;;1.19;100.00;98848.48;3935156;74;383813;-80
2021/01/27 13:29:56;;;;;;;0.90;0.80;;;;;;;1.13;100.00;98852.56;3933492;74;383852;-80
2021/01/27 13:35:20;;;;;;;1.50;0.80;;;;;;;1.14;100.00;98844.09;3933317;74;383584;-80
2021/01/27 13:40:42;;;;;;;2.20;1.20;;;;;;;1.14;100.00;98831.12;3932903;74;396070;-80
2021/01/27 13:46:03;;;;;;;0.90;0.80;;;;;;;1.10;100.00;98825.61;3933287;74;391899;-80
2021/01/27 13:51:25;;;;;;;0.87;0.70;;;;;;;1.26;100.00;98814.81;3933639;74;383567;-80
2021/01/27 13:56:46;;;;;;;0.90;0.70;;;;;;;1.32;100.00;98810.16;3933334;74;385700;-80
2021/01/27 14:02:07;;;;;;;0.80;0.50;;;;;;;1.19;100.00;98807.84;3910947;74;383971;-80
2021/01/27 14:07:28;;;;;;;0.80;0.70;;;;;;;1.25;100.00;98809.97;3893663;74;383838;-79
2021/01/27 14:12:50;;;;;;;1.07;0.97;;;;;;;1.17;100.00;98806.84;3893315;75;383838;-80
2021/01/27 14:18:11;;;;;;;0.80;0.40;;;;;;;1.10;100.00;98803.14;3894119;75;383877;-80
2021/01/27 14:23:32;;;;;;;1.63;0.80;;;;;;;1.16;100.00;98800.43;3893417;74;393962;-80
2021/01/27 14:28:55;;;;;;;1.50;1.40;;;;;;;1.25;100.00;98798.36;3893485;74;383852;-80
2021/01/27 14:34:16;;;;;;;1.07;0.97;;;;;;;1.36;100.00;98800.23;3893380;75;383830;-80
2021/01/27 14:39:38;;;;;;;0.80;0.60;;;;;;;1.25;100.00;98791.02;3893846;74;383541;-80
2021/01/27 14:44:59;;;;;;;0.87;0.73;;;;;;;1.23;100.00;98786.50;3894055;74;383829;-80
2021/01/27 14:50:21;;;;;;;1.10;0.97;;;;;;;1.35;100.00;98782.39;3893412;75;388081;-79
2021/01/27 14:55:42;;;;;;;0.80;0.50;;;;;;;1.32;100.00;98788.49;3894474;75;383558;-79
2021/01/27 15:01:03;;;;;;;0.90;0.60;;;;;;;1.34;100.00;98790.30;3894222;74;385605;-79
2021/01/27 15:06:24;;;;;;;0.80;0.50;;;;;;;1.34;100.00;98781.36;3893903;74;383561;-80
2021/01/27 15:11:45;;;;;;;4.03;1.53;;;;;;;1.24;100.00;98786.72;3892612;74;391942;-79
2021/01/27 15:17:06;;;;;;;1.30;0.60;;;;;;;1.30;100.00;98788.04;3893517;75;390110;-79
2021/01/27 15:22:28;;;;;;;0.80;0.40;;;;;;;1.28;100.00;98799.81;3893562;75;383842;-79
2021/01/27 15:27:49;;;;;;;0.80;0.50;;;;;;;1.18;100.00;98796.23;3893947;74;383573;-79
2021/01/27 15:33:11;;;;;;;0.80;0.50;;;;;;;1.16;100.00;98789.02;3893861;75;383798;-80
2021/01/27 15:38:33;;;;;;;1.10;0.73;;;;;;;1.20;100.00;98796.69;3893401;75;390054;-79
2021/01/27 15:43:55;;;;;;;16.83;3.63;;;;;;;1.19;100.00;98783.47;3892800;75;393989;-78
2021/01/27 15:49:16;;;;;;;1.13;1.00;;;;;;;1.16;100.00;98784.95;3894051;74;383573;-79
2021/01/27 15:54:38;;;;;;;3.80;1.50;;;;;;;1.14;100.00;98790.50;3893602;75;383925;-80
2021/01/27 15:59:59;;;;;;;0.80;0.60;;;;;;;1.24;100.00;98786.72;3893502;74;383798;-79
2021/01/27 16:05:22;;;;;;;0.90;0.77;;;;;;;1.19;100.00;98782.91;3931192;74;391871;-80
2021/01/27 16:10:44;;;;;;;0.90;0.70;;;;;;;1.20;100.00;98789.91;3933194;74;383844;-79
2021/01/27 16:16:05;;;;;;;1.77;1.67;;;;;;;1.16;100.00;98783.59;3932889;74;385912;-79
2021/01/27 16:21:26;;;;;;;0.90;0.60;;;;;;;1.09;100.00;98782.05;3933738;74;383568;-79
2021/01/27 16:26:48;;;;;;;1.07;0.80;;;;;;;1.16;100.00;98796.36;3933062;74;383573;-79
2021/01/27 16:32:09;;;;;;;2.97;2.00;;;;;;;1.04;100.00;98787.72;3932198;74;396158;-79
2021/01/27 16:37:30;;;;;;;1.33;0.97;;;;;;;1.15;100.00;98783.95;3932703;74;394022;-80
2021/01/27 16:42:52;;;;;;;2.50;1.30;;;;;;;1.08;100.00;98780.47;3932350;74;391969;-79
2021/01/27 16:48:14;;;;;;;1.20;1.10;;;;;;;1.05;100.00;98782.50;3932988;74;383588;-79
2021/01/27 16:53:35;;;;;;;2.10;1.27;;;;;;;0.98;100.00;98774.18;3931953;74;396090;-79
2021/01/27 16:58:57;;;;;;;1.40;0.70;;;;;;;1.08;100.00;98767.51;3933274;74;389825;-79
2021/01/27 17:04:18;;;;;;;0.90;0.77;;;;;;;1.00;100.00;98753.55;3933558;74;389951;-79
2021/01/27 17:09:39;;;;;;;0.80;0.60;;;;;;;0.98;100.00;98764.70;3933724;74;383575;-79
2021/01/27 17:15:01;;;;;;;3.53;2.00;;;;;;;1.07;100.00;98765.34;3932675;74;394258;-79
2021/01/27 17:20:23;;;;;;;3.53;2.03;;;;;;;1.07;100.00;98754.52;3931728;74;393973;-79
2021/01/27 17:25:44;;;;;;;1.77;1.17;;;;;;;1.10;100.00;98756.55;3932555;74;392171;-79
2021/01/27 17:31:05;;;;;;;1.57;1.47;;;;;;;1.09;100.00;98762.31;3932311;74;396119;-79
2021/01/27 17:36:26;;;;;;;2.10;1.23;;;;;;;1.06;100.00;98761.05;3932998;74;383793;-79
2021/01/27 17:41:48;;;;;;;1.60;1.33;;;;;;;1.14;100.00;98764.19;3932344;74;393977;-79
2021/01/27 17:47:09;;;;;;;1.37;1.13;;;;;;;1.14;100.00;98764.77;3932987;74;396073;-79
2021/01/27 17:52:30;;;;;;;0.80;0.50;;;;;;;1.02;100.00;98766.95;3933675;74;383813;-79
2021/01/27 17:57:52;;;;;;;0.80;0.50;;;;;;;1.06;100.00;98771.89;3933775;74;383552;-79
2021/01/27 18:03:13;;;;;;;0.93;0.83;;;;;;;1.05;100.00;98768.19;3921251;74;393994;-80
2021/01/27 18:08:35;;;;;;;3.07;2.87;;;;;;;1.02;100.00;98776.44;3893018;75;396034;-79
2021/01/27 18:13:56;;;;;;;1.40;1.30;;;;;;;1.09;100.00;98775.28;3893443;75;388000;-79
2021/01/27 18:19:17;;;;;;;3.80;1.77;;;;;;;1.10;100.00;98775.50;3892916;74;391918;-79
2021/01/27 18:24:38;;;;;;;2.40;1.20;;;;;;;1.03;100.00;98763.67;3893156;75;391908;-79
2021/01/27 18:29:59;;;;;;;3.67;0.93;;;;;;;1.07;100.00;98761.86;3892961;75;393989;-80
2021/01/27 18:35:23;;;;;;;0.80;0.70;;;;;;;1.08;100.00;98771.56;3894254;75;383565;-79
2021/01/27 18:40:45;;;;;;;0.80;0.50;;;;;;;1.02;100.00;98766.95;3893924;74;383569;-79
2021/01/27 18:46:06;;;;;;;0.97;0.80;;;;;;;1.05;100.00;98762.19;3893844;75;387756;-79
2021/01/27 18:51:28;;;;;;;1.53;0.70;;;;;;;1.08;100.00;98764.22;3893500;75;388763;-79
2021/01/27 18:56:49;;;;;;;1.20;1.10;;;;;;;1.08;100.00;98768.28;3892957;75;389813;-79
2021/01/27 19:02:10;;;;;;;1.40;1.10;;;;;;;1.14;100.00;98779.08;3892863;75;396125;-78
2021/01/27 19:07:32;;;;;;;1.80;1.03;;;;;;;1.10;100.00;98774.15;3892992;75;389878;-79
2021/01/27 19:12:53;;;;;;;1.00;0.90;;;;;;;1.10;100.00;98761.96;3893036;75;392899;-79
2021/01/27 19:18:14;;;;;;;1.77;1.67;;;;;;;1.12;100.00;98774.59;3893456;74;390858;-79
2021/01/27 19:23:36;;;;;;;0.90;0.70;;;;;;;1.14;100.00;98774.24;3893842;74;383573;-78
2021/01/27 19:28:57;;;;;;;0.90;0.63;;;;;;;1.18;100.00;98772.41;3893496;75;389877;-79
2021/01/27 19:34:19;;;;;;;0.80;0.50;;;;;;;1.25;100.00;98772.63;3893743;74;383597;-79
2021/01/27 19:39:41;;;;;;;3.70;3.43;;;;;;;1.23;100.00;98770.82;3892575;75;396505;-79
2021/01/27 19:45:04;;;;;;;3.63;1.90;;;;;;;1.32;100.00;98776.30;3893471;75;387787;-79
2021/01/27 19:50:27;;;;;;;2.30;1.93;;;;;;;1.28;100.00;98780.84;3894770;75;396131;-79
2021/01/27 19:55:51;;;;;;;2.80;1.23;;;;;;;1.39;100.00;98768.94;3892568;75;396357;-79
2021/01/27 20:01:14;;;;;;;2.60;1.00;;;;;;;1.41;100.00;98771.52;3892981;74;386717;-79
2021/01/27 20:06:36;;;;;;;1.40;0.90;;;;;;;1.39;100.00;98778.42;3923055;74;394004;-79
2021/01/27 20:11:57;;;;;;;1.17;0.60;;;;;;;1.45;100.00;98777.83;3933520;74;383592;-79
2021/01/27 20:17:19;;;;;;;0.90;0.70;;;;;;;1.51;100.00;98778.34;3933139;74;383584;-79
2021/01/27 20:22:40;;;;;;;0.80;0.50;;;;;;;1.54;100.00;98776.30;3933455;74;383844;-79
2021/01/27 20:28:01;;;;;;;6.60;1.03;;;;;;;1.55;100.00;98781.36;3933407;74;383785;-79
2021/01/27 20:33:25;;;;;;;0.80;0.57;;;;;;;1.56;100.00;98781.59;3933116;74;383828;-79
2021/01/27 20:38:46;;;;;;;0.80;0.50;;;;;;;1.53;100.00;98785.56;3933421;74;383844;-79
2021/01/27 20:44:07;;;;;;;1.30;1.07;;;;;;;1.61;100.00;98784.06;3932842;74;388089;-79
2021/01/27 20:49:29;;;;;;;4.40;2.00;;;;;;;1.64;100.00;98779.28;3931888;74;396374;-79
2021/01/27 20:54:52;;;;;;;1.03;0.93;;;;;;;1.60;100.00;98779.77;3932289;74;395042;-79
2021/01/27 21:00:15;;;;;;;6.10;2.87;;;;;;;1.57;100.00;98779.88;3932919;74;388810;-80
2021/01/27 21:05:38;;;;;;;3.40;2.90;;;;;;;1.55;100.00;98782.72;3915883;74;396333;-79
2021/01/27 21:10:59;;;;;;;1.40;1.30;;;;;;;1.62;100.00;98771.51;3892772;75;387774;-79
2021/01/27 21:16:20;;;;;;;0.93;0.83;;;;;;;1.50;100.00;98766.72;3894085;75;383549;-79
2021/01/27 21:21:41;;;;;;;1.20;1.10;;;;;;;1.60;100.00;98768.34;3892958;75;391915;-79
2021/01/27 21:27:03;;;;;;;1.30;1.00;;;;;;;1.65;100.00;98783.57;3893593;74;388006;-79
2021/01/27 21:32:24;;;;;;;0.80;0.60;;;;;;;1.59;100.00;98782.26;3893929;74;383824;-79
2021/01/27 21:37:45;;;;;;;4.33;1.90;;;;;;;1.58;100.00;98775.26;3892391;74;396183;-79
2021/01/27 21:43:07;;;;;;;1.20;1.00;;;;;;;1.65;100.00;98791.16;3892921;75;396025;-79
2021/01/27 21:48:29;;;;;;;1.23;1.13;;;;;;;1.67;100.00;98801.06;3892893;75;383633;-79
2021/01/27 21:53:50;;;;;;;1.83;0.97;;;;;;;1.64;100.00;98798.25;3893099;75;389812;-79
2021/01/27 21:59:12;;;;;;;2.23;1.83;;;;;;;1.68;100.00;98803.22;3892608;74;383582;-79
2021/01/27 22:04:33;;;;;;;4.50;2.60;;;;;;;1.68;100.00;98797.22;3897558;74;387701;-79
2021/01/27 22:09:53;;;;;;;1.13;0.80;;;;;;;1.74;100.00;98800.47;3932421;74;392901;-79
2021/01/27 22:15:18;;;;;;;4.33;1.33;;;;;;;1.74;100.00;98806.66;3932416;74;393957;-79
2021/01/27 22:20:40;;;;;;;0.80;0.40;;;;;;;1.76;100.00;98809.81;3933014;74;383541;-79
2021/01/27 22:26:01;;;;;;;1.20;1.10;;;;;;;1.79;100.00;98805.62;3933476;74;383529;-78
2021/01/27 22:31:24;;;;;;;1.10;1.00;;;;;;;1.79;100.00;98802.91;3932435;74;392916;-79
2021/01/27 22:36:46;;;;;;;1.13;1.03;;;;;;;1.77;100.00;98804.63;3932919;74;392970;-79
2021/01/27 22:42:08;;;;;;;1.07;0.97;;;;;;;1.88;100.00;98795.39;3933368;74;383828;-79
2021/01/27 22:47:29;;;;;;;0.90;0.60;;;;;;;1.88;100.00;98787.26;3933432;74;383577;-78
2021/01/27 22:52:50;;;;;;;1.00;0.77;;;;;;;1.86;100.00;98802.53;3933495;74;383821;-79
2021/01/27 22:58:13;;;;;;;1.47;1.17;;;;;;;1.91;100.00;98803.62;3932590;74;394987;-79
2021/01/27 23:03:35;;;;;;;1.67;1.43;;;;;;;1.89;100.00;98799.13;3932613;74;391876;-79
2021/01/27 23:08:56;;;;;;;0.90;0.60;;;;;;;1.95;100.00;98800.44;3933266;74;387762;-78
2021/01/27 23:14:17;;;;;;;3.23;1.37;;;;;;;1.95;100.00;98805.86;3932807;74;391913;-78
2021/01/27 23:19:38;;;;;;;0.90;0.70;;;;;;;1.85;100.00;98794.75;3933521;74;383576;-78
2021/01/27 23:25:00;;;;;;;1.60;1.20;;;;;;;1.88;100.00;98793.48;3932298;74;396387;-78
2021/01/27 23:30:25;;;;;;;1.27;0.90;;;;;;;1.87;100.00;98780.25;3933296;74;383596;-78
2021/01/27 23:35:47;;;;;;;1.00;0.80;;;;;;;1.88;100.00;98785.91;3933319;74;385758;-78
2021/01/27 23:41:08;;;;;;;2.40;2.03;;;;;;;1.84;100.00;98776.33;3932282;74;387736;-78
2021/01/27 23:46:30;;;;;;;3.77;1.30;;;;;;;1.71;100.00;98786.23;3932161;74;392984;-78
2021/01/27 23:51:51;;;;;;;1.10;0.90;;;;;;;1.65;100.00;98783.57;3933263;74;383841;-78
2021/01/27 23:57:12;;;;;;;1.20;1.10;;;;;;;1.71;100.00;98764.55;3932582;74;394029;-78
